Time;durP1;ratioP1;P1;durP2;ratioP2;P2;SDS_P1;SDS_P2;PMS_P1;PMS_P2;Temp;Humidity;BMP_temperature;BMP_pressure;BME280_temperature;BME280_humidity;BME280_pressure;Samples;Min_cycle;Max_cycle;Signal;HPM_P1;HPM_P2
2022/11/22 00:01:27;;;;;;;34.40;13.77;;;-0.60;99.90;;;;;;4120724;28;20479;-73
2022/11/22 00:03:30;;;;;;;35.60;13.30;;;-0.60;99.90;;;;;;4120518;28;20527;-73
2022/11/22 00:05:33;;;;;;;40.63;14.27;;;-0.70;99.90;;;;;;4126611;28;20499;-73
2022/11/22 00:07:36;;;;;;;33.17;14.17;;;-0.70;99.90;;;;;;4125914;28;20460;-73
2022/11/22 00:09:38;;;;;;;37.17;14.17;;;-0.70;99.90;;;;;;4125600;28;20547;-73
2022/11/22 00:11:40;;;;;;;34.87;13.57;;;-0.60;99.90;;;;;;4124540;28;20483;-73
2022/11/22 00:13:42;;;;;;;38.50;13.23;;;-0.70;99.90;;;;;;4123107;28;20975;-73
2022/11/22 00:15:44;;;;;;;39.27;14.17;;;-0.70;99.90;;;;;;4121413;28;20477;-73
2022/11/22 00:17:46;;;;;;;33.03;12.97;;;-0.70;99.90;;;;;;4120027;28;20492;-73
2022/11/22 00:19:48;;;;;;;40.43;14.10;;;-0.70;99.90;;;;;;4106415;28;20507;-73
2022/11/22 00:21:51;;;;;;;39.97;14.33;;;-0.70;99.90;;;;;;4105621;28;20466;-73
2022/11/22 00:23:56;;;;;;;35.73;14.17;;;-0.60;99.90;;;;;;4105883;28;20460;-73
2022/11/22 00:25:58;;;;;;;36.73;13.60;;;-0.60;99.90;;;;;;4124846;28;20581;-73
2022/11/22 00:28:00;;;;;;;35.30;13.53;;;-0.60;99.90;;;;;;4126187;28;20449;-73
2022/11/22 00:30:02;;;;;;;32.67;13.43;;;-0.60;99.90;;;;;;4105856;28;20470;-73
2022/11/22 00:32:04;;;;;;;35.33;14.00;;;-0.60;99.90;;;;;;4121011;28;20487;-73
2022/11/22 00:34:06;;;;;;;34.07;13.93;;;-0.60;99.90;;;;;;4123091;28;20457;-73
2022/11/22 00:36:08;;;;;;;34.23;14.03;;;-0.60;99.90;;;;;;4122406;28;20444;-73
2022/11/22 00:38:12;;;;;;;34.03;14.17;;;-0.60;99.90;;;;;;4123323;28;20460;-73
2022/11/22 00:40:14;;;;;;;36.07;14.03;;;-0.40;99.90;;;;;;4120150;28;20491;-73
2022/11/22 00:42:16;;;;;;;35.87;14.00;;;-0.60;99.90;;;;;;4122557;28;20503;-73
2022/11/22 00:44:18;;;;;;;34.73;13.53;;;-0.60;99.90;;;;;;4123429;28;20456;-73
2022/11/22 00:46:20;;;;;;;40.53;15.43;;;-0.60;99.90;;;;;;4122517;28;20494;-73
2022/11/22 00:48:22;;;;;;;34.87;14.20;;;-0.60;99.90;;;;;;4121627;28;20545;-73
2022/11/22 00:50:24;;;;;;;36.73;14.30;;;-0.60;99.90;;;;;;4109391;28;20465;-73
2022/11/22 00:52:26;;;;;;;39.37;14.17;;;-0.60;99.90;;;;;;4122158;28;20534;-73
2022/11/22 00:54:29;;;;;;;35.20;13.80;;;-0.50;99.90;;;;;;4106391;28;20485;-73
2022/11/22 00:56:32;;;;;;;32.53;13.57;;;-0.60;99.90;;;;;;4123732;28;20495;-73
2022/11/22 00:58:33;;;;;;;33.33;12.97;;;-0.60;99.90;;;;;;4117898;28;20449;-73
2022/11/22 01:00:38;;;;;;;37.90;13.87;;;-0.50;99.90;;;;;;4106122;28;20494;-73
2022/11/22 01:02:40;;;;;;;33.53;12.97;;;-0.60;99.90;;;;;;4119146;28;20572;-73
2022/11/22 01:04:42;;;;;;;36.83;13.97;;;-0.60;99.90;;;;;;4124793;28;20460;-73
2022/11/22 01:06:44;;;;;;;30.37;13.07;;;-0.50;99.90;;;;;;4124544;28;20551;-73
2022/11/22 01:08:47;;;;;;;35.70;14.03;;;-0.60;99.90;;;;;;4122515;28;20464;-73
2022/11/22 01:10:55;;;;;;;34.57;14.13;;;-0.50;99.90;;;;;;4121341;28;20452;-73
2022/11/22 01:12:58;;;;;;;37.17;14.67;;;-0.50;99.90;;;;;;4124306;28;20538;-73
2022/11/22 01:15:00;;;;;;;31.97;13.27;;;-0.60;99.90;;;;;;4124773;28;20463;-73
2022/11/22 01:17:02;;;;;;;34.80;13.97;;;-0.60;99.90;;;;;;4121586;28;20488;-73
2022/11/22 01:19:04;;;;;;;36.73;14.60;;;-0.60;99.90;;;;;;4123533;28;20900;-73
2022/11/22 01:21:06;;;;;;;33.47;14.13;;;-0.60;99.90;;;;;;4124269;28;20526;-73
2022/11/22 01:23:08;;;;;;;32.00;12.87;;;-0.60;99.90;;;;;;4123218;28;20508;-73
2022/11/22 01:25:10;;;;;;;30.70;13.33;;;-0.60;99.90;;;;;;4123209;28;20480;-73
2022/11/22 01:27:13;;;;;;;31.77;12.90;;;-0.60;99.90;;;;;;4123129;28;20516;-73
2022/11/22 01:29:15;;;;;;;30.60;13.07;;;-0.60;99.90;;;;;;4122038;28;20467;-73
2022/11/22 01:31:17;;;;;;;30.40;12.90;;;-0.60;99.90;;;;;;4121096;28;20501;-73
2022/11/22 01:33:20;;;;;;;35.40;13.37;;;-0.70;99.90;;;;;;4125320;28;20575;-73
2022/11/22 01:35:22;;;;;;;28.53;11.47;;;-0.60;99.90;;;;;;4125482;28;20480;-73
2022/11/22 01:37:24;;;;;;;34.57;13.87;;;-0.70;99.90;;;;;;4122789;28;20482;-73
2022/11/22 01:39:26;;;;;;;29.13;12.37;;;-0.60;99.90;;;;;;4124699;28;20450;-73
2022/11/22 01:41:28;;;;;;;30.87;12.40;;;-0.60;99.90;;;;;;4120782;28;20488;-73
2022/11/22 01:43:31;;;;;;;29.60;12.50;;;-0.70;99.90;;;;;;4118535;28;20466;-73
2022/11/22 01:45:46;;;;;;;30.53;13.00;;;-0.60;99.90;;;;;;4120711;28;21086;-73
2022/11/22 01:47:48;;;;;;;32.73;13.30;;;-0.70;99.90;;;;;;4121053;28;20559;-73
2022/11/22 01:49:54;;;;;;;28.97;12.67;;;-0.60;99.90;;;;;;4119811;28;21058;-73
2022/11/22 01:52:00;;;;;;;33.77;13.50;;;-0.60;99.90;;;;;;4119213;28;20491;-73
2022/11/22 01:54:09;;;;;;;34.47;12.67;;;-0.60;99.90;;;;;;4124289;28;20499;-73
2022/11/22 01:56:14;;;;;;;33.57;13.23;;;-0.60;99.90;;;;;;4121811;28;20978;-73
2022/11/22 01:58:17;;;;;;;32.37;13.70;;;-0.60;99.90;;;;;;4122304;28;20465;-73
2022/11/22 02:00:21;;;;;;;32.40;13.47;;;-0.60;99.90;;;;;;4120995;28;20901;-73
2022/11/22 02:02:23;;;;;;;33.13;12.60;;;-0.60;99.90;;;;;;4119584;28;20567;-73
2022/11/22 02:04:28;;;;;;;35.17;13.87;;;-0.60;99.90;;;;;;4120536;28;20503;-73
2022/11/22 02:06:38;;;;;;;31.57;13.60;;;-0.60;99.90;;;;;;4118625;28;20571;-73
2022/11/22 02:08:44;;;;;;;32.13;12.67;;;-0.60;99.90;;;;;;4123386;28;20507;-73
2022/11/22 02:10:50;;;;;;;37.30;14.37;;;-0.60;99.90;;;;;;4125161;28;20955;-73
2022/11/22 02:12:55;;;;;;;37.80;14.53;;;-0.60;99.90;;;;;;4116870;28;21078;-73
2022/11/22 02:14:58;;;;;;;35.77;13.60;;;-0.60;99.90;;;;;;4119746;28;20478;-74
2022/11/22 02:17:01;;;;;;;33.80;13.60;;;-0.60;99.90;;;;;;4121257;28;20504;-73
2022/11/22 02:19:05;;;;;;;38.03;13.50;;;-0.60;99.90;;;;;;4114042;28;20500;-73
2022/11/22 02:21:08;;;;;;;34.20;13.67;;;-0.60;99.90;;;;;;4124622;28;20468;-73
2022/11/22 02:23:16;;;;;;;31.17;13.17;;;-0.70;99.90;;;;;;4121220;28;20575;-73
2022/11/22 02:25:27;;;;;;;35.33;14.47;;;-0.70;99.90;;;;;;4124108;28;21046;-73
2022/11/22 02:27:31;;;;;;;33.83;14.60;;;-0.70;99.90;;;;;;4119863;28;20474;-73
2022/11/22 02:29:33;;;;;;;38.07;13.90;;;-0.70;99.90;;;;;;4117449;28;20532;-73
2022/11/22 02:31:39;;;;;;;37.67;14.50;;;-0.70;99.90;;;;;;4125200;28;20500;-73
2022/11/22 02:33:41;;;;;;;36.27;13.73;;;-0.70;99.90;;;;;;4119354;28;20469;-73
2022/11/22 02:35:44;;;;;;;33.40;13.67;;;-0.70;99.90;;;;;;4123580;28;20464;-73
2022/11/22 02:37:47;;;;;;;34.20;13.60;;;-0.70;99.90;;;;;;4121932;28;21233;-73
2022/11/22 02:39:52;;;;;;;37.77;14.37;;;-0.70;99.90;;;;;;4120691;28;20542;-73
2022/11/22 02:41:55;;;;;;;31.90;13.43;;;-0.70;99.90;;;;;;4125205;28;20575;-73
2022/11/22 02:43:59;;;;;;;36.23;14.40;;;-0.70;99.90;;;;;;4120993;28;20845;-73
2022/11/22 02:46:05;;;;;;;35.00;13.80;;;-0.80;99.90;;;;;;4119481;28;20484;-73
2022/11/22 02:48:08;;;;;;;30.67;13.07;;;-0.80;99.90;;;;;;4119949;28;20504;-73
2022/11/22 02:50:12;;;;;;;37.27;14.97;;;-0.80;99.90;;;;;;4121632;28;20532;-73
2022/11/22 02:52:16;;;;;;;34.60;13.53;;;-0.80;99.90;;;;;;4122295;28;20579;-73
2022/11/22 02:54:18;;;;;;;31.67;13.27;;;-0.80;99.90;;;;;;4120651;28;20476;-73
2022/11/22 02:56:20;;;;;;;34.63;14.77;;;-0.80;99.90;;;;;;4121192;28;20547;-73
2022/11/22 02:58:22;;;;;;;35.03;13.87;;;-0.80;99.90;;;;;;4122105;28;21018;-73
2022/11/22 03:00:26;;;;;;;36.33;14.27;;;-0.80;99.90;;;;;;4124065;28;20570;-73
2022/11/22 03:02:28;;;;;;;33.87;13.60;;;-0.80;99.90;;;;;;4122134;28;20491;-73
2022/11/22 03:04:30;;;;;;;35.87;13.53;;;-0.80;99.90;;;;;;4123607;28;20553;-73
2022/11/22 03:06:32;;;;;;;31.37;13.47;;;-0.80;99.90;;;;;;4118787;28;20530;-73
2022/11/22 03:08:34;;;;;;;32.43;14.33;;;-0.80;99.90;;;;;;4122127;28;20493;-73
2022/11/22 03:10:36;;;;;;;33.87;13.70;;;-0.80;99.90;;;;;;4120359;28;20841;-73
2022/11/22 03:12:38;;;;;;;33.97;12.43;;;-0.80;99.90;;;;;;4116572;28;20492;-73
2022/11/22 03:14:39;;;;;;;30.97;13.33;;;-0.80;99.90;;;;;;4119841;28;20539;-73
2022/11/22 03:16:43;;;;;;;33.53;12.73;;;-0.80;99.90;;;;;;4120284;28;20453;-73
2022/11/22 03:18:45;;;;;;;31.03;12.87;;;-0.80;99.90;;;;;;4118368;28;21287;-73
2022/11/22 03:20:47;;;;;;;33.50;12.30;;;-0.80;99.90;;;;;;4120495;28;20550;-73
2022/11/22 03:22:49;;;;;;;39.80;13.70;;;-0.80;99.90;;;;;;4123457;28;20567;-73
2022/11/22 03:24:51;;;;;;;36.90;13.43;;;-0.80;99.90;;;;;;4119171;28;20942;-73
2022/11/22 03:26:53;;;;;;;30.83;12.33;;;-0.80;99.90;;;;;;4118464;28;20532;-73
2022/11/22 03:28:55;;;;;;;37.57;13.93;;;-0.80;99.90;;;;;;4125376;28;20498;-73
2022/11/22 03:30:57;;;;;;;29.73;13.00;;;-0.80;99.90;;;;;;4126506;28;20464;-73
2022/11/22 03:33:01;;;;;;;31.23;13.03;;;-0.80;99.90;;;;;;4118395;28;20591;-73
2022/11/22 03:35:03;;;;;;;32.93;13.27;;;-0.70;99.90;;;;;;4122210;28;21236;-73
2022/11/22 03:37:05;;;;;;;32.67;13.33;;;-0.80;99.90;;;;;;4121837;28;20488;-73
2022/11/22 03:39:07;;;;;;;33.43;12.83;;;-0.70;99.90;;;;;;4125211;28;20459;-73
2022/11/22 03:41:09;;;;;;;33.50;13.27;;;-0.70;99.90;;;;;;4120823;28;20947;-73
2022/11/22 03:43:11;;;;;;;31.30;12.53;;;-0.70;99.90;;;;;;4123483;28;20535;-73
2022/11/22 03:45:13;;;;;;;32.17;12.80;;;-0.70;99.90;;;;;;4120791;28;20495;-73
2022/11/22 03:47:15;;;;;;;33.47;12.93;;;-0.70;99.90;;;;;;4124091;28;20491;-73
2022/11/22 03:49:18;;;;;;;31.73;12.80;;;-0.70;99.90;;;;;;4124854;28;20490;-73
2022/11/22 03:51:20;;;;;;;33.10;13.10;;;-0.70;99.90;;;;;;4125283;28;20476;-73
2022/11/22 03:53:22;;;;;;;33.07;12.87;;;-0.70;99.90;;;;;;4122598;28;20559;-74
2022/11/22 03:55:24;;;;;;;33.90;13.40;;;-0.60;99.90;;;;;;4122186;28;20468;-73
2022/11/22 03:57:26;;;;;;;31.03;13.67;;;-0.60;99.90;;;;;;4119713;28;20496;-73
2022/11/22 03:59:28;;;;;;;30.90;13.37;;;-0.60;99.90;;;;;;4122247;28;20559;-73
2022/11/22 04:01:30;;;;;;;29.40;12.57;;;-0.60;99.90;;;;;;4122935;28;20971;-73
2022/11/22 04:03:32;;;;;;;28.77;11.90;;;-0.60;99.90;;;;;;4123461;28;20507;-73
2022/11/22 04:05:35;;;;;;;34.50;13.50;;;-0.60;99.90;;;;;;4120315;28;20555;-73
2022/11/22 04:07:37;;;;;;;35.43;13.67;;;-0.50;99.90;;;;;;4126589;28;20578;-73
2022/11/22 04:09:39;;;;;;;35.10;14.47;;;-0.50;99.90;;;;;;4125432;28;20467;-73
2022/11/22 04:11:41;;;;;;;34.47;13.73;;;-0.50;99.90;;;;;;4120437;28;20485;-73
2022/11/22 04:16:02;;;;;;;35.70;14.43;;;-0.50;99.90;;;;;;4122693;28;20454;-73
2022/11/22 04:18:04;;;;;;;38.20;13.60;;;-0.50;99.90;;;;;;4120376;28;20505;-73
2022/11/22 04:22:28;;;;;;;36.40;14.47;;;-0.40;99.90;;;;;;4125841;28;20475;-73
2022/11/22 04:26:50;;;;;;;36.13;13.57;;;-0.30;99.90;;;;;;4124510;28;21040;-73
2022/11/22 04:28:52;;;;;;;31.33;13.70;;;-0.40;99.90;;;;;;4123761;28;20504;-73
2022/11/22 04:33:15;;;;;;;32.90;13.20;;;-0.30;99.90;;;;;;4122192;28;20475;-73
2022/11/22 04:35:18;;;;;;;35.60;13.73;;;-0.30;99.90;;;;;;4122790;28;20551;-73
2022/11/22 04:37:20;;;;;;;33.60;12.70;;;-0.30;99.90;;;;;;4122135;28;20448;-73
2022/11/22 04:39:24;;;;;;;31.13;12.93;;;-0.30;99.90;;;;;;4124025;28;20468;-73
2022/11/22 04:41:25;;;;;;;32.77;13.20;;;-0.30;99.90;;;;;;4122291;28;20552;-73
2022/11/22 04:45:49;;;;;;;30.60;13.03;;;-0.30;99.90;;;;;;4121096;28;20510;-73
2022/11/22 04:47:59;;;;;;;32.47;13.13;;;-0.30;99.90;;;;;;4124344;28;20484;-73
2022/11/22 04:50:01;;;;;;;31.47;13.10;;;-0.30;99.90;;;;;;4121630;28;20499;-73
2022/11/22 04:54:26;;;;;;;31.47;13.77;;;-0.30;99.90;;;;;;4125089;28;20473;-73
2022/11/22 04:56:27;;;;;;;27.93;12.63;;;-0.20;99.90;;;;;;4127992;28;20531;-73
2022/11/22 04:58:29;;;;;;;31.37;12.83;;;-0.20;99.90;;;;;;4107582;28;20509;-73
2022/11/22 05:00:32;;;;;;;35.47;13.97;;;-0.20;99.90;;;;;;4109733;28;21029;-73
2022/11/22 05:02:34;;;;;;;30.53;13.20;;;-0.20;99.90;;;;;;4121796;28;20492;-73
2022/11/22 05:04:38;;;;;;;34.67;14.33;;;-0.20;99.90;;;;;;4121902;28;20514;-73
2022/11/22 05:06:39;;;;;;;28.77;12.67;;;-0.20;99.90;;;;;;4122836;28;20472;-73
2022/11/22 05:08:41;;;;;;;29.17;12.93;;;-0.20;99.90;;;;;;4127652;28;20884;-73
2022/11/22 05:10:57;;;;;;;32.20;13.57;;;-0.20;99.90;;;;;;4106257;28;20531;-73
2022/11/22 05:12:59;;;;;;;28.23;12.57;;;-0.20;99.90;;;;;;4120534;28;20484;-73
2022/11/22 05:15:01;;;;;;;35.93;14.47;;;-0.20;99.90;;;;;;4121462;28;21066;-73
2022/11/22 05:17:03;;;;;;;29.73;12.90;;;-0.20;99.90;;;;;;4123151;28;20716;-73
2022/11/22 05:19:05;;;;;;;31.83;13.07;;;-0.10;99.90;;;;;;4121031;28;20484;-73
2022/11/22 05:21:08;;;;;;;27.70;12.90;;;-0.20;99.90;;;;;;4123778;28;20476;-73
2022/11/22 05:25:29;;;;;;;31.17;12.63;;;-0.20;99.90;;;;;;4119905;28;20464;-73
2022/11/22 05:27:32;;;;;;;37.90;13.83;;;-0.20;99.90;;;;;;4125210;28;20512;-73
2022/11/22 05:29:35;;;;;;;29.47;12.30;;;-0.20;99.90;;;;;;4124301;28;20511;-73
2022/11/22 05:31:38;;;;;;;27.70;12.10;;;-0.20;99.90;;;;;;4122182;28;20465;-73
2022/11/22 05:33:42;;;;;;;29.17;13.63;;;-0.10;99.90;;;;;;4107613;28;20486;-73
2022/11/22 05:35:44;;;;;;;36.97;14.47;;;-0.10;99.90;;;;;;4121220;28;20539;-73
2022/11/22 05:37:46;;;;;;;34.03;13.77;;;-0.10;99.90;;;;;;4123766;28;20554;-73
2022/11/22 05:39:48;;;;;;;35.07;14.40;;;-0.10;99.90;;;;;;4122743;28;21034;-73
2022/11/22 05:41:55;;;;;;;32.50;14.00;;;-0.10;99.90;;;;;;4109741;28;20833;-74
2022/11/22 05:43:59;;;;;;;31.43;13.33;;;-0.10;99.90;;;;;;4118658;28;20457;-73
2022/11/22 05:46:08;;;;;;;30.30;13.13;;;-0.10;99.90;;;;;;4123800;28;21037;-73
2022/11/22 05:48:10;;;;;;;36.30;14.17;;;-0.10;99.90;;;;;;4125625;28;20503;-73
2022/11/22 05:50:13;;;;;;;30.07;13.27;;;-0.10;99.90;;;;;;4122135;28;20976;-73
2022/11/22 05:52:15;;;;;;;31.43;12.60;;;-0.10;99.90;;;;;;4102739;28;20498;-73
2022/11/22 05:54:17;;;;;;;29.33;13.37;;;-0.10;99.90;;;;;;4126486;28;20547;-73
2022/11/22 05:56:20;;;;;;;28.03;12.43;;;-0.10;99.90;;;;;;4123961;28;20461;-73
2022/11/22 05:58:22;;;;;;;34.97;13.33;;;-0.10;99.90;;;;;;4123156;28;20519;-73
2022/11/22 06:00:26;;;;;;;35.70;15.40;;;-0.10;99.90;;;;;;4122644;28;20453;-73
2022/11/22 06:02:28;;;;;;;32.43;14.67;;;-0.10;99.90;;;;;;4120412;28;20865;-73
2022/11/22 06:04:29;;;;;;;36.40;13.47;;;-0.10;99.90;;;;;;4123744;28;20507;-73
2022/11/22 06:06:32;;;;;;;32.33;14.13;;;-0.10;99.90;;;;;;4125461;28;20453;-74
2022/11/22 06:08:36;;;;;;;33.80;13.77;;;-0.10;99.90;;;;;;4120889;28;20562;-73
2022/11/22 06:10:38;;;;;;;30.83;13.53;;;-0.10;99.90;;;;;;4122019;28;20888;-73
2022/11/22 06:12:40;;;;;;;26.90;12.40;;;-0.10;99.90;;;;;;4121143;28;20492;-74
2022/11/22 06:14:42;;;;;;;31.27;13.90;;;0.00;99.90;;;;;;4122476;28;20935;-74
2022/11/22 06:16:45;;;;;;;30.33;12.93;;;-0.10;99.90;;;;;;4119866;28;20943;-74
2022/11/22 06:18:47;;;;;;;30.33;13.10;;;-0.10;99.90;;;;;;4122365;28;20896;-74
2022/11/22 06:20:49;;;;;;;29.57;13.90;;;-0.10;99.90;;;;;;4123219;28;20536;-74
2022/11/22 06:22:51;;;;;;;30.07;11.50;;;-0.10;99.90;;;;;;4122812;28;20577;-74
2022/11/22 06:24:55;;;;;;;30.53;12.97;;;-0.10;99.90;;;;;;4121345;28;20444;-74
2022/11/22 06:26:57;;;;;;;28.13;12.77;;;-0.10;99.90;;;;;;4112243;28;20491;-74
2022/11/22 06:28:59;;;;;;;35.00;14.83;;;-0.10;99.90;;;;;;4124009;28;20456;-74
2022/11/22 06:31:01;;;;;;;32.00;13.10;;;0.00;99.90;;;;;;4123320;28;20548;-74
2022/11/22 06:33:04;;;;;;;32.73;13.07;;;-0.10;99.90;;;;;;4119847;28;20578;-74
2022/11/22 06:35:09;;;;;;;29.27;12.43;;;-0.10;99.90;;;;;;4123545;28;20873;-74
2022/11/22 06:37:14;;;;;;;30.47;12.73;;;-0.10;99.90;;;;;;4104893;28;20465;-75
2022/11/22 06:39:16;;;;;;;31.77;13.47;;;-0.10;99.90;;;;;;4122562;28;20465;-74
2022/11/22 06:41:20;;;;;;;31.60;14.30;;;0.00;99.90;;;;;;4126991;28;20498;-76
2022/11/22 06:43:22;;;;;;;32.93;13.17;;;0.00;99.90;;;;;;4123188;28;20948;-73
2022/11/22 06:45:24;;;;;;;30.77;13.30;;;0.00;99.90;;;;;;4123856;28;20470;-74
2022/11/22 06:47:26;;;;;;;29.13;12.27;;;-0.10;99.90;;;;;;4119019;28;20587;-73
2022/11/22 06:49:29;;;;;;;31.03;13.27;;;-0.10;99.90;;;;;;4119540;28;20460;-74
2022/11/22 06:51:32;;;;;;;33.17;13.60;;;0.00;99.90;;;;;;4120522;28;20529;-75
2022/11/22 06:53:36;;;;;;;32.73;13.43;;;-0.10;99.90;;;;;;4121154;28;20907;-74
2022/11/22 06:55:38;;;;;;;29.43;13.30;;;-0.10;99.90;;;;;;4122191;28;20952;-74
2022/11/22 06:57:40;;;;;;;27.33;13.13;;;-0.10;99.90;;;;;;4118000;28;20539;-75
2022/11/22 06:59:42;;;;;;;35.17;14.60;;;-0.10;99.90;;;;;;4119014;28;20543;-74
2022/11/22 07:01:44;;;;;;;30.97;13.50;;;-0.10;99.90;;;;;;4119392;28;20515;-74
2022/11/22 07:03:47;;;;;;;32.00;14.43;;;-0.10;99.90;;;;;;4116755;28;20507;-75
2022/11/22 07:05:52;;;;;;;32.87;14.83;;;-0.10;99.90;;;;;;4121771;28;20457;-74
2022/11/22 07:07:54;;;;;;;35.20;15.23;;;-0.10;99.90;;;;;;4110601;28;21042;-74
2022/11/22 07:09:58;;;;;;;31.30;13.47;;;-0.10;99.90;;;;;;4121919;28;20796;-75
2022/11/22 07:12:00;;;;;;;36.50;14.60;;;-0.10;99.90;;;;;;4117336;28;20493;-75
2022/11/22 07:14:05;;;;;;;38.13;15.13;;;-0.10;99.90;;;;;;4106038;28;20462;-75
2022/11/22 07:16:10;;;;;;;34.53;14.23;;;-0.10;99.90;;;;;;4108036;28;20461;-74
2022/11/22 07:18:12;;;;;;;33.30;15.37;;;-0.10;99.90;;;;;;4119538;28;20568;-75
2022/11/22 07:20:14;;;;;;;33.93;13.97;;;0.10;99.90;;;;;;4123366;28;20488;-74
2022/11/22 07:22:17;;;;;;;33.90;15.57;;;-0.10;99.90;;;;;;4105960;28;20535;-74
2022/11/22 07:24:19;;;;;;;35.60;14.40;;;-0.10;99.90;;;;;;4116867;28;20465;-74
2022/11/22 07:26:23;;;;;;;34.27;15.13;;;-0.10;99.90;;;;;;4122280;28;20485;-75
2022/11/22 07:28:26;;;;;;;37.10;15.50;;;-0.10;99.90;;;;;;4123127;28;20493;-75
2022/11/22 07:30:28;;;;;;;32.23;14.80;;;-0.10;99.90;;;;;;4122402;28;20467;-74
2022/11/22 07:32:30;;;;;;;32.40;14.53;;;-0.10;99.90;;;;;;4120926;28;20472;-74
2022/11/22 07:34:32;;;;;;;38.57;15.50;;;-0.10;99.90;;;;;;4117213;28;20561;-74
2022/11/22 07:36:34;;;;;;;34.13;14.93;;;-0.10;99.90;;;;;;4119398;28;20859;-74
2022/11/22 07:38:38;;;;;;;32.87;14.63;;;-0.10;99.90;;;;;;4107535;28;21057;-74
2022/11/22 07:40:40;;;;;;;37.93;15.43;;;-0.10;99.90;;;;;;4125349;28;21098;-74
2022/11/22 07:42:41;;;;;;;33.97;14.40;;;-0.10;99.90;;;;;;4104379;28;20591;-74
2022/11/22 07:44:43;;;;;;;33.40;14.13;;;-0.10;99.90;;;;;;4126313;28;20484;-74
2022/11/22 07:46:46;;;;;;;33.50;13.90;;;-0.10;99.90;;;;;;4124089;28;20512;-74
2022/11/22 07:48:49;;;;;;;34.80;14.77;;;-0.10;99.90;;;;;;4129176;28;20524;-74
2022/11/22 07:50:51;;;;;;;33.93;14.37;;;0.00;99.90;;;;;;4120818;28;20498;-74
2022/11/22 07:52:55;;;;;;;32.80;14.10;;;-0.10;99.90;;;;;;4127780;28;20545;-74
2022/11/22 07:54:59;;;;;;;31.97;13.70;;;0.00;99.90;;;;;;4119511;28;20472;-74
2022/11/22 07:57:01;;;;;;;30.80;13.07;;;0.00;99.90;;;;;;4120975;28;20624;-74
2022/11/22 07:59:03;;;;;;;35.63;14.33;;;0.00;99.90;;;;;;4125244;28;20452;-74
2022/11/22 08:01:06;;;;;;;31.17;14.83;;;0.00;99.90;;;;;;4124899;28;20471;-74
2022/11/22 08:03:09;;;;;;;31.30;14.57;;;0.00;99.90;;;;;;4122605;28;20536;-74
2022/11/22 08:05:11;;;;;;;34.77;14.60;;;0.30;99.90;;;;;;4123309;28;20456;-74
2022/11/22 08:07:12;;;;;;;35.00;14.30;;;0.00;99.90;;;;;;4120368;28;20488;-74
2022/11/22 08:09:14;;;;;;;32.80;14.33;;;0.00;99.90;;;;;;4118685;28;20499;-74
2022/11/22 08:11:18;;;;;;;30.23;14.37;;;0.10;99.90;;;;;;4126141;28;20448;-74
2022/11/22 08:13:20;;;;;;;35.17;15.53;;;0.10;99.90;;;;;;4127987;28;20551;-74
2022/11/22 08:15:22;;;;;;;34.60;14.87;;;0.10;99.90;;;;;;4110008;28;20948;-74
2022/11/22 08:17:24;;;;;;;31.80;13.93;;;0.10;99.90;;;;;;4102752;28;20480;-74
2022/11/22 08:19:26;;;;;;;33.40;14.53;;;0.10;99.90;;;;;;4127645;28;20545;-74
2022/11/22 08:21:28;;;;;;;35.43;15.10;;;0.20;99.90;;;;;;4127138;28;20454;-74
2022/11/22 08:23:30;;;;;;;34.77;15.07;;;0.20;99.90;;;;;;4119061;28;20454;-74
2022/11/22 08:25:32;;;;;;;35.57;15.93;;;0.20;99.90;;;;;;4110324;28;20482;-74
2022/11/22 08:27:35;;;;;;;30.43;13.83;;;0.20;99.90;;;;;;4126423;28;20920;-74
2022/11/22 08:29:37;;;;;;;33.97;14.33;;;0.30;99.90;;;;;;4126832;28;20463;-75
2022/11/22 08:31:40;;;;;;;30.03;14.43;;;0.30;99.90;;;;;;4124849;28;21096;-75
2022/11/22 08:33:42;;;;;;;31.23;13.83;;;0.30;99.90;;;;;;4121828;28;20498;-75
2022/11/22 08:35:49;;;;;;;30.47;14.83;;;0.30;99.90;;;;;;4127056;28;20448;-74
2022/11/22 08:37:54;;;;;;;34.67;14.90;;;0.30;99.90;;;;;;4128101;28;20456;-75
2022/11/22 08:39:56;;;;;;;32.47;13.83;;;0.40;99.90;;;;;;4118242;28;20469;-74
2022/11/22 08:42:00;;;;;;;31.17;14.40;;;0.40;99.90;;;;;;4124522;28;20489;-74
2022/11/22 08:44:03;;;;;;;28.00;14.20;;;0.40;99.90;;;;;;4122204;28;20459;-74
2022/11/22 08:46:06;;;;;;;29.97;13.90;;;0.40;99.90;;;;;;4120839;28;20458;-74
2022/11/22 08:48:08;;;;;;;25.00;12.60;;;0.40;99.90;;;;;;4120138;28;20515;-74
2022/11/22 08:50:10;;;;;;;26.70;12.73;;;0.50;99.90;;;;;;4120859;28;20462;-74
2022/11/22 08:52:12;;;;;;;26.63;12.33;;;0.60;99.90;;;;;;4121197;28;20564;-74
2022/11/22 08:54:15;;;;;;;26.30;12.53;;;0.50;99.90;;;;;;4120187;28;20459;-74
2022/11/22 08:56:19;;;;;;;27.43;13.40;;;0.60;99.90;;;;;;4108025;28;20475;-73
2022/11/22 08:58:21;;;;;;;30.73;12.50;;;0.60;99.90;;;;;;4119431;28;20921;-74
2022/11/22 09:00:25;;;;;;;28.47;13.00;;;0.60;99.90;;;;;;4121284;28;20459;-74
2022/11/22 09:02:27;;;;;;;27.73;13.33;;;0.60;99.90;;;;;;4104708;28;20476;-74
2022/11/22 09:04:28;;;;;;;29.57;13.43;;;0.70;99.90;;;;;;4120919;28;20454;-73
2022/11/22 09:06:31;;;;;;;31.83;14.03;;;0.70;99.90;;;;;;4110243;28;20477;-74
2022/11/22 09:08:34;;;;;;;26.43;11.77;;;0.80;99.90;;;;;;4121829;28;20529;-73
2022/11/22 09:10:36;;;;;;;26.60;12.17;;;0.80;99.90;;;;;;4123022;28;21033;-74
2022/11/22 09:12:38;;;;;;;26.90;12.70;;;0.90;99.90;;;;;;4121614;28;20514;-74
2022/11/22 09:14:40;;;;;;;27.73;12.97;;;0.90;99.90;;;;;;4125376;28;20466;-74
2022/11/22 09:16:43;;;;;;;24.37;12.73;;;1.00;99.90;;;;;;4120910;28;20481;-73
2022/11/22 09:18:46;;;;;;;24.17;11.47;;;1.00;99.90;;;;;;4119526;28;20506;-74
2022/11/22 09:20:48;;;;;;;24.70;12.50;;;1.10;99.90;;;;;;4121413;28;20467;-74
2022/11/22 09:22:50;;;;;;;26.50;12.63;;;1.10;99.90;;;;;;4119450;28;20480;-74
2022/11/22 09:24:52;;;;;;;28.00;13.00;;;1.20;99.90;;;;;;4118141;28;20925;-74
2022/11/22 09:26:53;;;;;;;24.87;12.47;;;1.20;99.90;;;;;;4123293;28;21019;-74
2022/11/22 09:28:56;;;;;;;30.97;14.87;;;1.30;99.90;;;;;;4122685;28;20571;-74
2022/11/22 09:31:00;;;;;;;26.97;13.03;;;1.30;99.90;;;;;;4121397;28;20448;-74
2022/11/22 09:33:03;;;;;;;26.37;13.70;;;1.40;99.90;;;;;;4121015;28;20519;-74
2022/11/22 09:35:05;;;;;;;26.40;12.27;;;1.40;99.90;;;;;;4120783;28;20446;-75
2022/11/22 09:37:07;;;;;;;22.30;11.87;;;1.50;99.90;;;;;;4122448;28;20445;-74
2022/11/22 09:39:10;;;;;;;25.43;11.23;;;1.60;99.90;;;;;;4127523;28;20456;-74
2022/11/22 09:41:38;;;;;;;23.13;11.83;;;1.60;99.90;;;;;;4121228;28;20948;-74
2022/11/22 09:43:44;;;;;;;20.97;11.10;;;1.60;99.90;;;;;;4125286;28;20969;-74
2022/11/22 09:46:18;;;;;;;24.83;12.13;;;1.70;99.90;;;;;;4129782;28;20474;-74
2022/11/22 09:48:44;;;;;;;22.77;10.47;;;1.80;99.90;;;;;;4127237;28;20499;-74
2022/11/22 09:50:54;;;;;;;21.87;10.87;;;1.90;99.90;;;;;;4115511;28;20494;-74
2022/11/22 09:53:01;;;;;;;18.00;9.93;;;2.00;99.90;;;;;;4124920;28;20474;-74
2022/11/22 09:55:10;;;;;;;26.60;12.33;;;2.00;99.90;;;;;;4121083;28;20455;-74
2022/11/22 09:57:18;;;;;;;20.13;11.00;;;2.10;99.90;;;;;;4125425;28;20452;-74
2022/11/22 09:59:25;;;;;;;21.40;11.30;;;2.20;99.90;;;;;;4117511;28;20533;-75
2022/11/22 10:01:31;;;;;;;23.10;11.20;;;2.30;99.90;;;;;;4125521;28;20455;-74
2022/11/22 10:03:46;;;;;;;22.83;11.03;;;2.40;99.90;;;;;;4121129;28;22009;-74
2022/11/22 10:05:51;;;;;;;21.03;10.63;;;2.40;99.90;;;;;;4120710;28;20516;-74
2022/11/22 10:08:01;;;;;;;20.80;10.40;;;2.50;99.90;;;;;;4105702;28;20461;-74
2022/11/22 10:10:07;;;;;;;21.20;11.13;;;2.50;99.90;;;;;;4121862;28;20460;-74
2022/11/22 10:12:15;;;;;;;20.23;10.63;;;2.60;99.90;;;;;;4118447;28;20921;-74
2022/11/22 10:14:30;;;;;;;20.87;10.17;;;2.60;99.90;;;;;;4120344;28;20470;-74
2022/11/22 10:16:38;;;;;;;21.23;10.77;;;2.70;99.90;;;;;;4110572;28;20473;-74
2022/11/22 10:18:44;;;;;;;20.00;10.60;;;2.70;99.90;;;;;;4126289;28;20574;-74
2022/11/22 10:20:48;;;;;;;20.17;11.00;;;2.80;99.90;;;;;;4126283;28;20456;-74
2022/11/22 10:22:50;;;;;;;20.10;10.03;;;2.80;99.90;;;;;;4127748;28;20914;-74
2022/11/22 10:24:52;;;;;;;22.53;10.37;;;2.90;99.90;;;;;;4126194;28;20463;-74
2022/11/22 10:26:57;;;;;;;19.20;10.13;;;3.00;99.90;;;;;;4124116;28;20794;-74
2022/11/22 10:29:17;;;;;;;22.13;10.73;;;3.00;99.90;;;;;;4124298;28;20479;-74
2022/11/22 10:31:26;;;;;;;21.70;11.20;;;3.10;99.90;;;;;;4126804;28;20478;-74
2022/11/22 10:33:34;;;;;;;20.23;10.63;;;3.20;99.90;;;;;;4128966;28;20478;-74
2022/11/22 10:36:01;;;;;;;19.93;10.70;;;3.20;99.90;;;;;;4128550;28;20455;-74
2022/11/22 10:38:31;;;;;;;22.30;11.00;;;3.30;99.90;;;;;;4124520;28;20449;-74
2022/11/22 10:40:45;;;;;;;23.43;11.80;;;3.30;99.90;;;;;;4119978;28;20500;-74
2022/11/22 10:43:14;;;;;;;24.10;12.20;;;3.30;99.90;;;;;;4122404;28;20475;-74
2022/11/22 10:45:23;;;;;;;18.83;10.37;;;3.40;99.90;;;;;;4119120;28;20526;-75
2022/11/22 10:47:43;;;;;;;23.63;11.70;;;3.40;99.90;;;;;;4123686;28;20598;-74